Sealuck 2 — 9HXU7 — position and weather

sailwx.info

Track history (hours):
 
Tides and Currents Weather Stations Pressure Air Temp Water Temp Dewpoint Dewpoint Depression Visibility Wind Speed Wind Dir Waves Ship Positions

Sealuck 2

Last reported at 2018-Feb-20 22:18 UTC. Time now 2018-Feb-21 21:03 UTC.
Position S 29°42' E 031°51'.

Length 190 m; draft 11.1 m.

Type: Ship. MMSI: 215713000.

Date/timePositionNaut miles runAvg speedWind from/ knotsBaromVisibWave heightAir tempDewpointWater temp
2018-Feb-20 22:18S 29°42' E 031°51'3 9.1
2018-Feb-20 21:59S 29°42' E 031°47'5 9.0
2018-Feb-20 21:24S 29°43' E 031°42'511.4
2018-Feb-20 21:00S 29°44' E 031°36'612.3
2018-Feb-20 20:30S 29°45' E 031°29'612.4
2018-Feb-20 20:00S 29°46' E 031°22'612.5
2018-Feb-20 19:30S 29°48' E 031°15'612.8
2018-Feb-20 19:00S 29°49' E 031°08'510.7
2018-Feb-20 18:30S 29°52' E 031°03'2 4.6
2018-Feb-20 18:00S 29°52' E 031°01'1 1.9
2018-Feb-20 17:30S 29°53' E 031°00'0 0.2
2018-Feb-20 16:56S 29°53' E 030°60'0 0.0
2018-Feb-20 16:29S 29°53' E 030°60'0 0.0
2018-Feb-20 15:56S 29°53' E 030°60'0 0.0
2018-Feb-20 15:26S 29°53' E 030°60'0 0.0
2018-Feb-20 14:56S 29°53' E 030°60'0 0.0
2018-Feb-20 14:26S 29°53' E 030°60'0 0.0
2018-Feb-20 13:59S 29°53' E 030°60'0 0.0
2018-Feb-20 13:26S 29°53' E 030°60'0 0.0
2018-Feb-20 07:50S 29°53' E 030°60'0 0.0
2018-Feb-20 07:26S 29°53' E 030°60'0 0.0
2018-Feb-20 06:56S 29°53' E 030°60'0 0.0
2018-Feb-20 06:26S 29°53' E 030°60'0 0.0
2018-Feb-20 05:56S 29°53' E 030°60'0 0.0
2018-Feb-20 05:26S 29°53' E 030°60'0 0.0
2018-Feb-20 04:55S 29°53' E 030°60'0 0.0
2018-Feb-20 04:19S 29°53' E 030°60'0 0.0
2018-Feb-20 03:58S 29°53' E 030°60'0 0.0
2018-Feb-20 03:28S 29°53' E 030°60'0 0.0
2018-Feb-20 02:55S 29°53' E 030°60'0 0.0
2018-Feb-20 02:28S 29°53' E 030°60'0 0.0
2018-Feb-20 01:55S 29°53' E 030°60'0 0.0
2018-Feb-20 01:28S 29°53' E 030°60'0 0.0
2018-Feb-20 00:58S 29°53' E 030°60'0 0.0
2018-Feb-20 00:28S 29°53' E 030°60'0 0.0
2018-Feb-19 23:58S 29°53' E 030°60'0 0.0
2018-Feb-19 23:28S 29°53' E 030°60'0 0.0
2018-Feb-19 22:55S 29°53' E 030°60'0 0.0
2018-Feb-19 22:25S 29°53' E 030°60'0 0.0
2018-Feb-19 21:49S 29°53' E 030°60'0 0.0
2018-Feb-19 21:19S 29°53' E 030°60'0 0.0
2018-Feb-19 20:55S 29°53' E 030°60'0 0.0
2018-Feb-19 20:25S 29°53' E 030°60'0 0.0
2018-Feb-19 19:55S 29°53' E 030°60'0 0.0
2018-Feb-19 19:25S 29°53' E 030°60'0 0.0
2018-Feb-19 18:58S 29°53' E 030°60'0 0.0
2018-Feb-19 18:28S 29°53' E 030°60'0 0.0
2018-Feb-19 17:58S 29°53' E 030°60'0 0.0
2018-Feb-19 17:28S 29°53' E 030°60'0 0.0
2018-Feb-19 16:58S 29°53' E 030°60'0 0.0
2018-Feb-19 16:28S 29°53' E 030°60'0 0.0
2018-Feb-19 15:58S 29°53' E 030°60'0 0.0
2018-Feb-19 15:25S 29°53' E 030°60'0 0.0
2018-Feb-19 14:55S 29°53' E 030°60'0 0.0
2018-Feb-19 14:19S 29°53' E 030°60'0 0.0
2018-Feb-19 13:58S 29°53' E 030°60'0 0.0
2018-Feb-19 13:28S 29°53' E 030°60'0 0.0
2018-Feb-19 12:55S 29°53' E 030°60'0 0.0
2018-Feb-19 12:25S 29°53' E 030°60'0 0.0
2018-Feb-19 11:55S 29°53' E 030°60'0 0.0
2018-Feb-19 11:25S 29°53' E 030°60'0 0.0
2018-Feb-19 10:58S 29°53' E 030°60'0 0.0
2018-Feb-19 10:25S 29°53' E 030°60'0 0.0
2018-Feb-19 09:52S 29°53' E 030°60'0 0.0
2018-Feb-19 09:28S 29°53' E 030°60'0 0.0
2018-Feb-19 08:58S 29°53' E 030°60'0 0.0
2018-Feb-19 08:25S 29°53' E 030°60'0 0.0
2018-Feb-19 07:49S 29°53' E 030°60'0 0.0
2018-Feb-19 07:25S 29°53' E 030°60'0 0.0
2018-Feb-19 06:55S 29°53' E 030°60'0 0.0
2018-Feb-19 06:25S 29°53' E 030°60'0 0.0
2018-Feb-19 05:55S 29°53' E 030°60'0 0.0
2018-Feb-19 05:25S 29°53' E 030°60'0 0.0
2018-Feb-19 04:55S 29°53' E 030°60'0 0.0
2018-Feb-19 04:25S 29°53' E 030°60'0 0.0
2018-Feb-19 03:58S 29°53' E 030°60'0 0.0
2018-Feb-19 03:28S 29°53' E 030°60'0 0.0
2018-Feb-19 02:55S 29°53' E 030°60'0 0.0
2018-Feb-19 02:28S 29°53' E 030°60'0 0.0
2018-Feb-19 01:55S 29°53' E 030°60'0 0.0
2018-Feb-19 01:25S 29°53' E 030°60'0 0.0
2018-Feb-19 00:55S 29°53' E 030°60'0 0.0
2018-Feb-19 00:25S 29°53' E 030°60'0 0.0
2018-Feb-18 23:55S 29°53' E 030°60'0 0.0
2018-Feb-18 23:28S 29°53' E 030°60'0 0.0
2018-Feb-18 22:55S 29°53' E 030°60'0 0.0
2018-Feb-18 22:25S 29°53' E 030°60'0 0.0
2018-Feb-18 21:55S 29°53' E 030°60'0 0.0
2018-Feb-18 21:25S 29°53' E 030°60'0 0.0
2018-Feb-18 20:55S 29°53' E 030°60'0 0.0
2018-Feb-18 20:25S 29°53' E 030°60'0 0.0
2018-Feb-18 19:58S 29°53' E 030°60'0 0.0
2018-Feb-18 19:25S 29°53' E 030°60'0 0.0
2018-Feb-18 18:58S 29°53' E 030°60'0 0.0
2018-Feb-18 18:28S 29°53' E 030°60'0 0.0
2018-Feb-18 18:01S 29°53' E 030°60'0 0.0
2018-Feb-18 17:31S 29°53' E 030°60'0 0.0
2018-Feb-18 17:01S 29°53' E 030°60'0 0.0
2018-Feb-18 16:30S 29°53' E 030°60'0 0.0
2018-Feb-18 16:00S 29°53' E 030°60'0 0.0
2018-Feb-18 15:30S 29°53' E 030°60'0 0.0
2018-Feb-18 15:00S 29°53' E 030°60'0 0.0
2018-Feb-18 14:30S 29°53' E 030°60'0 0.0
2018-Feb-18 14:00S 29°53' E 030°60'0 0.0
2018-Feb-18 13:30S 29°53' E 030°60'0 0.0
2018-Feb-18 13:00S 29°53' E 030°60'0 0.0
2018-Feb-18 12:24S 29°53' E 030°60'0 0.0
2018-Feb-18 12:00S 29°53' E 030°60'0 0.0
2018-Feb-18 11:30S 29°53' E 030°60'0 0.0
2018-Feb-18 11:00S 29°53' E 030°60'0 0.0
2018-Feb-18 10:06S 29°53' E 030°60'0 0.0
2018-Feb-18 10:00S 29°53' E 030°60'0 0.0
2018-Feb-18 09:30S 29°53' E 030°60'0 0.0
2018-Feb-18 09:00S 29°53' E 030°60'0 0.0
2018-Feb-18 08:30S 29°53' E 030°60'0 0.0
2018-Feb-18 07:48S 29°53' E 030°60'0 0.0
2018-Feb-18 07:30S 29°53' E 030°60'0 0.0
2018-Feb-18 07:00S 29°53' E 030°60'0 0.0
2018-Feb-18 06:30S 29°53' E 030°60'0 0.0
2018-Feb-18 06:00S 29°53' E 030°60'0 0.0
2018-Feb-18 05:30S 29°53' E 030°60'0 0.0
2018-Feb-18 05:00S 29°53' E 030°60'0 0.0
2018-Feb-18 04:24S 29°53' E 030°60'0 0.0
2018-Feb-18 04:00S 29°53' E 030°60'0 0.0
2018-Feb-18 03:30S 29°53' E 030°60'0 0.0
2018-Feb-18 03:00S 29°53' E 030°60'0 0.0
2018-Feb-18 02:30S 29°53' E 030°60'0 0.0
2018-Feb-18 02:00S 29°53' E 030°60'0 0.0
2018-Feb-18 01:24S 29°53' E 030°60'0 0.0
2018-Feb-18 01:00S 29°53' E 030°60'0 0.0
2018-Feb-18 00:30S 29°53' E 030°60'0 0.0
2018-Feb-18 00:00S 29°53' E 030°60'0 0.0
2018-Feb-17 23:30S 29°53' E 030°60'0 0.0
2018-Feb-17 23:00S 29°53' E 030°60'0 0.0
2018-Feb-17 22:30S 29°53' E 030°60'0 0.0
2018-Feb-17 22:00S 29°53' E 030°60'0 0.0
2018-Feb-17 21:30S 29°53' E 030°60'0 0.0
2018-Feb-17 21:00S 29°53' E 030°60'0 0.0
2018-Feb-17 20:30S 29°53' E 030°60'0 0.0
2018-Feb-17 20:00S 29°53' E 030°60'0 0.0
2018-Feb-17 19:30S 29°53' E 030°60'0 0.0
2018-Feb-17 19:00S 29°53' E 030°60'0 0.0
2018-Feb-17 18:30S 29°53' E 030°60'0 0.0
2018-Feb-17 18:00S 29°53' E 030°60'0 0.0
2018-Feb-17 17:30S 29°53' E 030°60'0 0.0
2018-Feb-17 17:00S 29°53' E 030°60'0 0.0
2018-Feb-17 16:30S 29°53' E 030°60'0 0.0
2018-Feb-17 16:00S 29°53' E 030°60'0 0.0
2018-Feb-17 15:24S 29°53' E 030°60'0 0.0
2018-Feb-17 15:00S 29°53' E 030°60'0 0.0
2018-Feb-17 14:30S 29°53' E 030°60'0 0.0
2018-Feb-17 14:00S 29°53' E 030°60'0 0.0
2018-Feb-17 13:30S 29°53' E 030°60'0 0.0
2018-Feb-17 13:00S 29°53' E 030°60'0 0.0
2018-Feb-17 12:30S 29°53' E 030°60'0 0.0
2018-Feb-17 12:00S 29°53' E 030°60'0 0.0
2018-Feb-17 11:30S 29°53' E 030°60'0 0.0
2018-Feb-17 11:00S 29°53' E 030°60'0 0.0
2018-Feb-17 10:30S 29°53' E 030°60'0 0.0
2018-Feb-17 10:00S 29°53' E 030°60'0 0.0
2018-Feb-17 09:30S 29°53' E 030°60'0 0.0
2018-Feb-17 09:00S 29°53' E 030°60'0 0.0
2018-Feb-17 08:30S 29°53' E 030°60'0 0.0
2018-Feb-17 07:48S 29°53' E 030°60'0 0.0
2018-Feb-17 07:30S 29°53' E 030°60'0 0.0
2018-Feb-17 07:00S 29°53' E 030°60'0 0.0
2018-Feb-17 06:30S 29°53' E 030°60'0 0.0
2018-Feb-17 06:00S 29°53' E 030°60'0 0.0
2018-Feb-17 05:30S 29°53' E 030°60'0 0.0
2018-Feb-17 05:00S 29°53' E 030°60'0 0.0
2018-Feb-17 04:30S 29°53' E 030°60'0 0.0
2018-Feb-17 03:59S 29°53' E 030°60'0 0.0
2018-Feb-17 03:29S 29°53' E 030°60'0 0.0
2018-Feb-17 02:59S 29°53' E 030°60'0 0.0
2018-Feb-17 02:29S 29°53' E 030°60'0 0.0
2018-Feb-17 01:59S 29°53' E 030°60'0 0.0
2018-Feb-17 01:26S 29°53' E 030°60'0 0.0
2018-Feb-17 00:59S 29°53' E 030°60'0 0.0
2018-Feb-17 00:23S 29°53' E 030°60'0 0.0
2018-Feb-16 23:59S 29°53' E 030°60'0 0.0
2018-Feb-16 23:29S 29°53' E 030°60'0 0.0
2018-Feb-16 22:59S 29°53' E 030°60'0 0.0
2018-Feb-16 22:29S 29°53' E 030°60'0 0.0
2018-Feb-16 21:59S 29°53' E 030°60'0 0.0
2018-Feb-16 21:29S 29°53' E 030°60'0 0.0
2018-Feb-16 20:59S 29°53' E 030°60'0 0.0
2018-Feb-16 20:29S 29°53' E 030°60'0 0.0
2018-Feb-16 19:59S 29°53' E 030°60'0 0.0
2018-Feb-16 19:29S 29°53' E 030°60'0 0.0
2018-Feb-16 18:59S 29°53' E 030°60'0 0.0
2018-Feb-16 18:29S 29°53' E 030°60'0 0.0
2018-Feb-16 17:59S 29°53' E 030°60'0 0.0
2018-Feb-16 17:29S 29°53' E 030°60'0 0.0
2018-Feb-16 16:59S 29°53' E 030°60'0 0.0
2018-Feb-16 16:23S 29°53' E 030°60'0 0.0
2018-Feb-16 15:59S 29°53' E 030°60'0 0.0
2018-Feb-16 15:29S 29°53' E 030°60'0 0.0
2018-Feb-16 14:59S 29°53' E 030°60'0 0.0
2018-Feb-16 14:29S 29°53' E 030°60'0 0.0
2018-Feb-16 13:59S 29°53' E 030°60'0 0.0
2018-Feb-16 13:29S 29°53' E 030°60'0 0.0
2018-Feb-16 12:59S 29°53' E 030°60'0 0.0
2018-Feb-16 12:29S 29°53' E 030°60'0 0.0
2018-Feb-16 11:56S 29°53' E 030°60'0 0.0
2018-Feb-16 11:29S 29°53' E 030°60'0 0.0
2018-Feb-16 10:59S 29°53' E 030°60'0 0.0
2018-Feb-16 10:29S 29°53' E 030°60'0 0.0
2018-Feb-16 09:59S 29°53' E 030°60'0 0.0
2018-Feb-16 09:23S 29°53' E 030°60'0 0.0
2018-Feb-16 08:59S 29°53' E 030°60'0 0.0
2018-Feb-16 08:29S 29°53' E 030°60'0 0.0
2018-Feb-16 07:47S 29°53' E 030°60'0 0.0
2018-Feb-16 07:29S 29°53' E 030°60'0 0.0
2018-Feb-16 06:59S 29°53' E 030°60'0 0.0
2018-Feb-16 06:29S 29°53' E 030°60'0 0.0
2018-Feb-16 05:59S 29°53' E 030°60'0 0.0
2018-Feb-16 05:29S 29°53' E 030°60'0 0.0
2018-Feb-16 04:53S 29°53' E 030°60'0 0.0
2018-Feb-16 04:29S 29°53' E 030°60'0 0.0
2018-Feb-16 03:59S 29°53' E 030°60'0 0.0
2018-Feb-16 03:29S 29°53' E 030°60'0 0.0
2018-Feb-16 02:59S 29°53' E 030°60'0 0.0
2018-Feb-16 02:29S 29°53' E 030°60'0 0.0
2018-Feb-16 01:59S 29°53' E 030°60'0 0.0
2018-Feb-16 01:29S 29°53' E 030°60'0 0.0
2018-Feb-16 00:59S 29°53' E 030°60'0 0.0
2018-Feb-16 00:29S 29°53' E 030°60'0 0.0
2018-Feb-15 23:59S 29°53' E 030°60'0 0.0
2018-Feb-15 23:20S 29°53' E 030°60'0 0.0
2018-Feb-15 22:59S 29°53' E 030°60'0 0.0
2018-Feb-15 22:29S 29°53' E 030°60'0 0.0
2018-Feb-15 21:59S 29°53' E 030°60'0 0.0
2018-Feb-15 21:30S 29°53' E 030°60'0 0.0
2018-Feb-15 21:00S 29°53' E 030°60'0 0.0
2018-Feb-15 20:30S 29°53' E 030°60'0 0.6
2018-Feb-15 20:00S 29°53' E 031°00'2 3.4
2018-Feb-15 19:30S 29°53' E 031°02'4 7.8
2018-Feb-15 19:01S 29°50' E 031°05'1 2.6
2018-Feb-15 18:31S 29°50' E 031°07'5 9.8
2018-Feb-15 18:01S 29°55' E 031°07'612.2
2018-Feb-15 17:31S 30°01' E 031°05'612.9
2018-Feb-15 17:01S 30°07' E 031°01'613.0
2018-Feb-15 16:31S 30°12' E 030°57'713.1
2018-Feb-15 15:59S 30°18' E 030°53'  
Track history (hours):
 
Tides and Currents Weather Stations Pressure Air Temp Water Temp Dewpoint Dewpoint Depression Visibility Wind Speed Wind Dir Waves Ship Positions

Sealuck 2

Last reported at 2018-Feb-20 22:18 UTC. Time now 2018-Feb-21 21:03 UTC.
Position S 29°42' E 031°51'.

Length 190 m; draft 11.1 m.

Type: Ship. MMSI: 215713000.

Date/timePositionNaut miles runAvg speedWind from/ knotsBaromVisibWave heightAir tempDewpointWater temp
2018-Feb-20 22:18S 29°42' E 031°51'3 9.1
2018-Feb-20 21:59S 29°42' E 031°47'5 9.0
2018-Feb-20 21:24S 29°43' E 031°42'511.4
2018-Feb-20 21:00S 29°44' E 031°36'612.3
2018-Feb-20 20:30S 29°45' E 031°29'612.4
2018-Feb-20 20:00S 29°46' E 031°22'612.5
2018-Feb-20 19:30S 29°48' E 031°15'612.8
2018-Feb-20 19:00S 29°49' E 031°08'510.7
2018-Feb-20 18:30S 29°52' E 031°03'2 4.6
2018-Feb-20 18:00S 29°52' E 031°01'1 1.9
2018-Feb-20 17:30S 29°53' E 031°00'0 0.2
2018-Feb-20 16:56S 29°53' E 030°60'0 0.0
2018-Feb-20 16:29S 29°53' E 030°60'0 0.0
2018-Feb-20 15:56S 29°53' E 030°60'0 0.0
2018-Feb-20 15:26S 29°53' E 030°60'0 0.0
2018-Feb-20 14:56S 29°53' E 030°60'0 0.0
2018-Feb-20 14:26S 29°53' E 030°60'0 0.0
2018-Feb-20 13:59S 29°53' E 030°60'0 0.0
2018-Feb-20 13:26S 29°53' E 030°60'0 0.0
2018-Feb-20 07:50S 29°53' E 030°60'0 0.0
2018-Feb-20 07:26S 29°53' E 030°60'0 0.0
2018-Feb-20 06:56S 29°53' E 030°60'0 0.0
2018-Feb-20 06:26S 29°53' E 030°60'0 0.0
2018-Feb-20 05:56S 29°53' E 030°60'0 0.0
2018-Feb-20 05:26S 29°53' E 030°60'0 0.0
2018-Feb-20 04:55S 29°53' E 030°60'0 0.0
2018-Feb-20 04:19S 29°53' E 030°60'0 0.0
2018-Feb-20 03:58S 29°53' E 030°60'0 0.0
2018-Feb-20 03:28S 29°53' E 030°60'0 0.0
2018-Feb-20 02:55S 29°53' E 030°60'0 0.0
2018-Feb-20 02:28S 29°53' E 030°60'0 0.0
2018-Feb-20 01:55S 29°53' E 030°60'0 0.0
2018-Feb-20 01:28S 29°53' E 030°60'0 0.0
2018-Feb-20 00:58S 29°53' E 030°60'0 0.0
2018-Feb-20 00:28S 29°53' E 030°60'0 0.0
2018-Feb-19 23:58S 29°53' E 030°60'0 0.0
2018-Feb-19 23:28S 29°53' E 030°60'0 0.0
2018-Feb-19 22:55S 29°53' E 030°60'0 0.0
2018-Feb-19 22:25S 29°53' E 030°60'0 0.0
2018-Feb-19 21:49S 29°53' E 030°60'0 0.0
2018-Feb-19 21:19S 29°53' E 030°60'0 0.0
2018-Feb-19 20:55S 29°53' E 030°60'0 0.0
2018-Feb-19 20:25S 29°53' E 030°60'0 0.0
2018-Feb-19 19:55S 29°53' E 030°60'0 0.0
2018-Feb-19 19:25S 29°53' E 030°60'0 0.0
2018-Feb-19 18:58S 29°53' E 030°60'0 0.0
2018-Feb-19 18:28S 29°53' E 030°60'0 0.0
2018-Feb-19 17:58S 29°53' E 030°60'0 0.0
2018-Feb-19 17:28S 29°53' E 030°60'0 0.0
2018-Feb-19 16:58S 29°53' E 030°60'0 0.0
2018-Feb-19 16:28S 29°53' E 030°60'0 0.0
2018-Feb-19 15:58S 29°53' E 030°60'0 0.0
2018-Feb-19 15:25S 29°53' E 030°60'0 0.0
2018-Feb-19 14:55S 29°53' E 030°60'0 0.0
2018-Feb-19 14:19S 29°53' E 030°60'0 0.0
2018-Feb-19 13:58S 29°53' E 030°60'0 0.0
2018-Feb-19 13:28S 29°53' E 030°60'0 0.0
2018-Feb-19 12:55S 29°53' E 030°60'0 0.0
2018-Feb-19 12:25S 29°53' E 030°60'0 0.0
2018-Feb-19 11:55S 29°53' E 030°60'0 0.0
2018-Feb-19 11:25S 29°53' E 030°60'0 0.0
2018-Feb-19 10:58S 29°53' E 030°60'0 0.0
2018-Feb-19 10:25S 29°53' E 030°60'0 0.0
2018-Feb-19 09:52S 29°53' E 030°60'0 0.0
2018-Feb-19 09:28S 29°53' E 030°60'0 0.0
2018-Feb-19 08:58S 29°53' E 030°60'0 0.0
2018-Feb-19 08:25S 29°53' E 030°60'0 0.0
2018-Feb-19 07:49S 29°53' E 030°60'0 0.0
2018-Feb-19 07:25S 29°53' E 030°60'0 0.0
2018-Feb-19 06:55S 29°53' E 030°60'0 0.0
2018-Feb-19 06:25S 29°53' E 030°60'0 0.0
2018-Feb-19 05:55S 29°53' E 030°60'0 0.0
2018-Feb-19 05:25S 29°53' E 030°60'0 0.0
2018-Feb-19 04:55S 29°53' E 030°60'0 0.0
2018-Feb-19 04:25S 29°53' E 030°60'0 0.0
2018-Feb-19 03:58S 29°53' E 030°60'0 0.0
2018-Feb-19 03:28S 29°53' E 030°60'0 0.0
2018-Feb-19 02:55S 29°53' E 030°60'0 0.0
2018-Feb-19 02:28S 29°53' E 030°60'0 0.0
2018-Feb-19 01:55S 29°53' E 030°60'0 0.0
2018-Feb-19 01:25S 29°53' E 030°60'0 0.0
2018-Feb-19 00:55S 29°53' E 030°60'0 0.0
2018-Feb-19 00:25S 29°53' E 030°60'0 0.0
2018-Feb-18 23:55S 29°53' E 030°60'0 0.0
2018-Feb-18 23:28S 29°53' E 030°60'0 0.0
2018-Feb-18 22:55S 29°53' E 030°60'0 0.0
2018-Feb-18 22:25S 29°53' E 030°60'0 0.0
2018-Feb-18 21:55S 29°53' E 030°60'0 0.0
2018-Feb-18 21:25S 29°53' E 030°60'0 0.0
2018-Feb-18 20:55S 29°53' E 030°60'0 0.0
2018-Feb-18 20:25S 29°53' E 030°60'0 0.0
2018-Feb-18 19:58S 29°53' E 030°60'0 0.0
2018-Feb-18 19:25S 29°53' E 030°60'0 0.0
2018-Feb-18 18:58S 29°53' E 030°60'0 0.0
2018-Feb-18 18:28S 29°53' E 030°60'0 0.0
2018-Feb-18 18:01S 29°53' E 030°60'0 0.0
2018-Feb-18 17:31S 29°53' E 030°60'0 0.0
2018-Feb-18 17:01S 29°53' E 030°60'0 0.0
2018-Feb-18 16:30S 29°53' E 030°60'0 0.0
2018-Feb-18 16:00S 29°53' E 030°60'0 0.0
2018-Feb-18 15:30S 29°53' E 030°60'0 0.0
2018-Feb-18 15:00S 29°53' E 030°60'0 0.0
2018-Feb-18 14:30S 29°53' E 030°60'0 0.0
2018-Feb-18 14:00S 29°53' E 030°60'0 0.0
2018-Feb-18 13:30S 29°53' E 030°60'0 0.0
2018-Feb-18 13:00S 29°53' E 030°60'0 0.0
2018-Feb-18 12:24S 29°53' E 030°60'0 0.0
2018-Feb-18 12:00S 29°53' E 030°60'0 0.0
2018-Feb-18 11:30S 29°53' E 030°60'0 0.0
2018-Feb-18 11:00S 29°53' E 030°60'0 0.0
2018-Feb-18 10:06S 29°53' E 030°60'0 0.0
2018-Feb-18 10:00S 29°53' E 030°60'0 0.0
2018-Feb-18 09:30S 29°53' E 030°60'0 0.0
2018-Feb-18 09:00S 29°53' E 030°60'0 0.0
2018-Feb-18 08:30S 29°53' E 030°60'0 0.0
2018-Feb-18 07:48S 29°53' E 030°60'0 0.0
2018-Feb-18 07:30S 29°53' E 030°60'0 0.0
2018-Feb-18 07:00S 29°53' E 030°60'0 0.0
2018-Feb-18 06:30S 29°53' E 030°60'0 0.0
2018-Feb-18 06:00S 29°53' E 030°60'0 0.0
2018-Feb-18 05:30S 29°53' E 030°60'0 0.0
2018-Feb-18 05:00S 29°53' E 030°60'0 0.0
2018-Feb-18 04:24S 29°53' E 030°60'0 0.0
2018-Feb-18 04:00S 29°53' E 030°60'0 0.0
2018-Feb-18 03:30S 29°53' E 030°60'0 0.0
2018-Feb-18 03:00S 29°53' E 030°60'0 0.0
2018-Feb-18 02:30S 29°53' E 030°60'0 0.0
2018-Feb-18 02:00S 29°53' E 030°60'0 0.0
2018-Feb-18 01:24S 29°53' E 030°60'0 0.0
2018-Feb-18 01:00S 29°53' E 030°60'0 0.0
2018-Feb-18 00:30S 29°53' E 030°60'0 0.0
2018-Feb-18 00:00S 29°53' E 030°60'0 0.0
2018-Feb-17 23:30S 29°53' E 030°60'0 0.0
2018-Feb-17 23:00S 29°53' E 030°60'0 0.0
2018-Feb-17 22:30S 29°53' E 030°60'0 0.0
2018-Feb-17 22:00S 29°53' E 030°60'0 0.0
2018-Feb-17 21:30S 29°53' E 030°60'0 0.0
2018-Feb-17 21:00S 29°53' E 030°60'0 0.0
2018-Feb-17 20:30S 29°53' E 030°60'0 0.0
2018-Feb-17 20:00S 29°53' E 030°60'0 0.0
2018-Feb-17 19:30S 29°53' E 030°60'0 0.0
2018-Feb-17 19:00S 29°53' E 030°60'0 0.0
2018-Feb-17 18:30S 29°53' E 030°60'0 0.0
2018-Feb-17 18:00S 29°53' E 030°60'0 0.0
2018-Feb-17 17:30S 29°53' E 030°60'0 0.0
2018-Feb-17 17:00S 29°53' E 030°60'0 0.0
2018-Feb-17 16:30S 29°53' E 030°60'0 0.0
2018-Feb-17 16:00S 29°53' E 030°60'0 0.0
2018-Feb-17 15:24S 29°53' E 030°60'0 0.0
2018-Feb-17 15:00S 29°53' E 030°60'0 0.0
2018-Feb-17 14:30S 29°53' E 030°60'0 0.0
2018-Feb-17 14:00S 29°53' E 030°60'0 0.0
2018-Feb-17 13:30S 29°53' E 030°60'0 0.0
2018-Feb-17 13:00S 29°53' E 030°60'0 0.0
2018-Feb-17 12:30S 29°53' E 030°60'0 0.0
2018-Feb-17 12:00S 29°53' E 030°60'0 0.0
2018-Feb-17 11:30S 29°53' E 030°60'0 0.0
2018-Feb-17 11:00S 29°53' E 030°60'0 0.0
2018-Feb-17 10:30S 29°53' E 030°60'0 0.0
2018-Feb-17 10:00S 29°53' E 030°60'0 0.0
2018-Feb-17 09:30S 29°53' E 030°60'0 0.0
2018-Feb-17 09:00S 29°53' E 030°60'0 0.0
2018-Feb-17 08:30S 29°53' E 030°60'0 0.0
2018-Feb-17 07:48S 29°53' E 030°60'0 0.0
2018-Feb-17 07:30S 29°53' E 030°60'0 0.0
2018-Feb-17 07:00S 29°53' E 030°60'0 0.0
2018-Feb-17 06:30S 29°53' E 030°60'0 0.0
2018-Feb-17 06:00S 29°53' E 030°60'0 0.0
2018-Feb-17 05:30S 29°53' E 030°60'0 0.0
2018-Feb-17 05:00S 29°53' E 030°60'0 0.0
2018-Feb-17 04:30S 29°53' E 030°60'0 0.0
2018-Feb-17 03:59S 29°53' E 030°60'0 0.0
2018-Feb-17 03:29S 29°53' E 030°60'0 0.0
2018-Feb-17 02:59S 29°53' E 030°60'0 0.0
2018-Feb-17 02:29S 29°53' E 030°60'0 0.0
2018-Feb-17 01:59S 29°53' E 030°60'0 0.0
2018-Feb-17 01:26S 29°53' E 030°60'0 0.0
2018-Feb-17 00:59S 29°53' E 030°60'0 0.0
2018-Feb-17 00:23S 29°53' E 030°60'0 0.0
2018-Feb-16 23:59S 29°53' E 030°60'0 0.0
2018-Feb-16 23:29S 29°53' E 030°60'0 0.0
2018-Feb-16 22:59S 29°53' E 030°60'0 0.0
2018-Feb-16 22:29S 29°53' E 030°60'0 0.0
2018-Feb-16 21:59S 29°53' E 030°60'0 0.0
2018-Feb-16 21:29S 29°53' E 030°60'0 0.0
2018-Feb-16 20:59S 29°53' E 030°60'0 0.0
2018-Feb-16 20:29S 29°53' E 030°60'0 0.0
2018-Feb-16 19:59S 29°53' E 030°60'0 0.0
2018-Feb-16 19:29S 29°53' E 030°60'0 0.0
2018-Feb-16 18:59S 29°53' E 030°60'0 0.0
2018-Feb-16 18:29S 29°53' E 030°60'0 0.0
2018-Feb-16 17:59S 29°53' E 030°60'0 0.0
2018-Feb-16 17:29S 29°53' E 030°60'0 0.0
2018-Feb-16 16:59S 29°53' E 030°60'0 0.0
2018-Feb-16 16:23S 29°53' E 030°60'0 0.0
2018-Feb-16 15:59S 29°53' E 030°60'0 0.0
2018-Feb-16 15:29S 29°53' E 030°60'0 0.0
2018-Feb-16 14:59S 29°53' E 030°60'0 0.0
2018-Feb-16 14:29S 29°53' E 030°60'0 0.0
2018-Feb-16 13:59S 29°53' E 030°60'0 0.0
2018-Feb-16 13:29S 29°53' E 030°60'0 0.0
2018-Feb-16 12:59S 29°53' E 030°60'0 0.0
2018-Feb-16 12:29S 29°53' E 030°60'0 0.0
2018-Feb-16 11:56S 29°53' E 030°60'0 0.0
2018-Feb-16 11:29S 29°53' E 030°60'0 0.0
2018-Feb-16 10:59S 29°53' E 030°60'0 0.0
2018-Feb-16 10:29S 29°53' E 030°60'0 0.0
2018-Feb-16 09:59S 29°53' E 030°60'0 0.0
2018-Feb-16 09:23S 29°53' E 030°60'0 0.0
2018-Feb-16 08:59S 29°53' E 030°60'0 0.0
2018-Feb-16 08:29S 29°53' E 030°60'0 0.0
2018-Feb-16 07:47S 29°53' E 030°60'0 0.0
2018-Feb-16 07:29S 29°53' E 030°60'0 0.0
2018-Feb-16 06:59S 29°53' E 030°60'0 0.0
2018-Feb-16 06:29S 29°53' E 030°60'0 0.0
2018-Feb-16 05:59S 29°53' E 030°60'0 0.0
2018-Feb-16 05:29S 29°53' E 030°60'0 0.0
2018-Feb-16 04:53S 29°53' E 030°60'0 0.0
2018-Feb-16 04:29S 29°53' E 030°60'0 0.0
2018-Feb-16 03:59S 29°53' E 030°60'0 0.0
2018-Feb-16 03:29S 29°53' E 030°60'0 0.0
2018-Feb-16 02:59S 29°53' E 030°60'0 0.0
2018-Feb-16 02:29S 29°53' E 030°60'0 0.0
2018-Feb-16 01:59S 29°53' E 030°60'0 0.0
2018-Feb-16 01:29S 29°53' E 030°60'0 0.0
2018-Feb-16 00:59S 29°53' E 030°60'0 0.0
2018-Feb-16 00:29S 29°53' E 030°60'0 0.0
2018-Feb-15 23:59S 29°53' E 030°60'0 0.0
2018-Feb-15 23:20S 29°53' E 030°60'0 0.0
2018-Feb-15 22:59S 29°53' E 030°60'0 0.0
2018-Feb-15 22:29S 29°53' E 030°60'0 0.0
2018-Feb-15 21:59S 29°53' E 030°60'0 0.0
2018-Feb-15 21:30S 29°53' E 030°60'0 0.0
2018-Feb-15 21:00S 29°53' E 030°60'0 0.0
2018-Feb-15 20:30S 29°53' E 030°60'0 0.6
2018-Feb-15 20:00S 29°53' E 031°00'2 3.4
2018-Feb-15 19:30S 29°53' E 031°02'4 7.8
2018-Feb-15 19:01S 29°50' E 031°05'1 2.6
2018-Feb-15 18:31S 29°50' E 031°07'5 9.8
2018-Feb-15 18:01S 29°55' E 031°07'612.2
2018-Feb-15 17:31S 30°01' E 031°05'612.9
2018-Feb-15 17:01S 30°07' E 031°01'613.0
2018-Feb-15 16:31S 30°12' E 030°57'713.1
2018-Feb-15 15:59S 30°18' E 030°53'  

Dump ship's entire track history